DLH161 EDXW-EDDF
Flight info
| Callsign | DLH161 |
|---|---|
| Flight time | N/A |
| Altitude | 33000 |
| Route | OLDIP1A OLDIP DCT PIZID DCT EKERN M852 HAM DCT RIMETT157 KERAX KERAX5D |
| Aircraft | A20N/M-SDE2E3FGHIRWXY/LB1 |
Departure
| Time | 2026-04-30 10:09 |
|---|---|
| Airport | Westerland Sylt Airport (EDXW) |
Arrival
| Time | N/A |
|---|---|
| Airport | Frankfurt Main Airport (EDDF) |
| Time | Latitude | Longitude | Altitude | Speed | Heading |
|---|---|---|---|---|---|
| 2026-04-30 09:04 | 54.91312 | 8.33111 | 33 ft | 0 kts | 90° |
| 2026-04-30 09:42 | 54.91312 | 8.33109 | 33 ft | 0 kts | 91° |
| 2026-04-30 10:00 | 54.91312 | 8.33113 | 32 ft | 2 kts | 91° |
| 2026-04-30 10:00 | 54.91311 | 8.33153 | 33 ft | 3 kts | 91° |
| 2026-04-30 10:01 | 54.91374 | 8.33250 | 31 ft | 11 kts | 0° |
| 2026-04-30 10:01 | 54.91450 | 8.33209 | 32 ft | 13 kts | 331° |
| 2026-04-30 10:01 | 54.91517 | 8.33178 | 34 ft | 10 kts | 0° |
| 2026-04-30 10:02 | 54.91640 | 8.33177 | 38 ft | 8 kts | 360° |
| 2026-04-30 10:02 | 54.91697 | 8.33177 | 39 ft | 5 kts | 0° |
| 2026-04-30 10:02 | 54.91738 | 8.33177 | 40 ft | 7 kts | 0° |
| 2026-04-30 10:02 | 54.91779 | 8.33178 | 42 ft | 2 kts | 2° |
| 2026-04-30 10:03 | 54.91800 | 8.33186 | 42 ft | 4 kts | 14° |
| 2026-04-30 10:03 | 54.91838 | 8.33208 | 42 ft | 5 kts | 20° |
| 2026-04-30 10:03 | 54.91867 | 8.33230 | 40 ft | 6 kts | 27° |
| 2026-04-30 10:03 | 54.91898 | 8.33289 | 42 ft | 1 kts | 67° |
| 2026-04-30 10:04 | 54.91900 | 8.33313 | 42 ft | 3 kts | 88° |
| 2026-04-30 10:04 | 54.91883 | 8.33355 | 42 ft | 6 kts | 140° |
| 2026-04-30 10:04 | 54.91880 | 8.33360 | 42 ft | 0 kts | 144° |
| 2026-04-30 10:05 | 54.91879 | 8.33361 | 42 ft | 0 kts | 144° |
| 2026-04-30 10:06 | 54.91758 | 8.33452 | 44 ft | 31 kts | 175° |
| 2026-04-30 10:06 | 54.91723 | 8.33450 | 45 ft | 1 kts | 203° |
| 2026-04-30 10:06 | 54.91719 | 8.33444 | 45 ft | 3 kts | 216° |
| 2026-04-30 10:06 | 54.91719 | 8.33379 | 45 ft | 10 kts | 294° |
| 2026-04-30 10:07 | 54.91747 | 8.33276 | 42 ft | 0 kts | 296° |
| 2026-04-30 10:07 | 54.91778 | 8.33200 | 40 ft | 11 kts | 332° |
| 2026-04-30 10:07 | 54.91864 | 8.33222 | 41 ft | 15 kts | 28° |
| 2026-04-30 10:08 | 54.91892 | 8.33341 | 42 ft | 10 kts | 118° |
| 2026-04-30 10:08 | 54.91830 | 8.33423 | 40 ft | 15 kts | 145° |
| 2026-04-30 10:08 | 54.91503 | 8.33822 | 41 ft | 101 kts | 145° |
| 2026-04-30 10:08 | 54.90741 | 8.34762 | 40 ft | 165 kts | 145° |
| 2026-04-30 10:09 | 54.89766 | 8.35967 | 719 ft | 175 kts | 146° |
| 2026-04-30 10:09 | 54.88730 | 8.37281 | 1208 ft | 195 kts | 144° |
| 2026-04-30 10:09 | 54.87566 | 8.38779 | 1668 ft | 222 kts | 144° |
| 2026-04-30 10:09 | 54.86242 | 8.40461 | 2233 ft | 248 kts | 145° |
| 2026-04-30 10:10 | 54.84810 | 8.42222 | 3193 ft | 252 kts | 145° |
| 2026-04-30 10:10 | 54.83382 | 8.43937 | 4154 ft | 255 kts | 144° |
| 2026-04-30 10:10 | 54.81899 | 8.45710 | 5091 ft | 261 kts | 144° |
| 2026-04-30 10:10 | 54.80387 | 8.47513 | 6045 ft | 267 kts | 143° |
| 2026-04-30 10:11 | 54.78846 | 8.49354 | 7048 ft | 269 kts | 142° |
| 2026-04-30 10:11 | 54.77315 | 8.51246 | 7999 ft | 272 kts | 141° |
| 2026-04-30 10:11 | 54.75770 | 8.53180 | 8937 ft | 276 kts | 141° |
| 2026-04-30 10:11 | 54.74202 | 8.55134 | 9874 ft | 280 kts | 141° |
| 2026-04-30 10:12 | 54.72604 | 8.57110 | 10772 ft | 284 kts | 141° |
| 2026-04-30 10:12 | 54.70976 | 8.59110 | 11621 ft | 289 kts | 141° |
| 2026-04-30 10:12 | 54.69329 | 8.61125 | 12485 ft | 292 kts | 141° |
| 2026-04-30 10:12 | 54.67657 | 8.63165 | 13317 ft | 296 kts | 141° |
| 2026-04-30 10:13 | 54.65966 | 8.65227 | 13877 ft | 302 kts | 140° |
| 2026-04-30 10:13 | 54.64235 | 8.67339 | 14621 ft | 306 kts | 140° |
| 2026-04-30 10:13 | 54.62639 | 8.69644 | 15392 ft | 301 kts | 125° |
| 2026-04-30 10:13 | 54.61597 | 8.72711 | 16117 ft | 295 kts | 105° |
| 2026-04-30 10:14 | 54.61180 | 8.76163 | 16802 ft | 298 kts | 95° |
| 2026-04-30 10:14 | 54.60860 | 8.79822 | 17023 ft | 319 kts | 95° |
| 2026-04-30 10:14 | 54.60141 | 8.87818 | 17653 ft | 350 kts | 96° |
| 2026-04-30 10:15 | 54.59754 | 8.91965 | 18455 ft | 350 kts | 96° |
| 2026-04-30 10:15 | 54.59364 | 8.96122 | 19151 ft | 353 kts | 96° |
| 2026-04-30 10:15 | 54.58968 | 9.00325 | 19738 ft | 357 kts | 96° |
| 2026-04-30 10:15 | 54.58568 | 9.04580 | 20327 ft | 361 kts | 96° |
| 2026-04-30 10:16 | 54.58163 | 9.08875 | 20908 ft | 365 kts | 96° |
| 2026-04-30 10:16 | 54.57752 | 9.13215 | 21489 ft | 369 kts | 96° |
| 2026-04-30 10:16 | 54.57335 | 9.17592 | 22086 ft | 372 kts | 96° |
| 2026-04-30 10:17 | 54.56483 | 9.26484 | 23242 ft | 379 kts | 95° |
| 2026-04-30 10:17 | 54.55121 | 9.35360 | 24295 ft | 396 kts | 114° |
| 2026-04-30 10:17 | 54.53487 | 9.39266 | 24749 ft | 409 kts | 129° |
| 2026-04-30 10:18 | 54.51279 | 9.42350 | 25171 ft | 421 kts | 144° |
| 2026-04-30 10:18 | 54.48581 | 9.44459 | 25601 ft | 433 kts | 159° |
| 2026-04-30 10:18 | 54.45590 | 9.45404 | 26035 ft | 442 kts | 172° |
| 2026-04-30 10:19 | 54.39394 | 9.45975 | 26893 ft | 449 kts | 172° |
| 2026-04-30 10:19 | 54.37290 | 9.46296 | 27165 ft | 450 kts | 171° |
| 2026-04-30 10:19 | 54.34179 | 9.46931 | 27618 ft | 451 kts | 169° |
| 2026-04-30 10:19 | 54.31060 | 9.47690 | 28005 ft | 454 kts | 168° |
| 2026-04-30 10:20 | 54.27931 | 9.48512 | 28393 ft | 457 kts | 168° |
| 2026-04-30 10:20 | 54.21611 | 9.50211 | 29145 ft | 462 kts | 168° |
| 2026-04-30 10:20 | 54.18425 | 9.51066 | 29502 ft | 465 kts | 168° |
| 2026-04-30 10:21 | 54.15212 | 9.51923 | 29845 ft | 468 kts | 168° |
| 2026-04-30 10:21 | 54.11992 | 9.52779 | 30169 ft | 470 kts | 168° |
| 2026-04-30 10:21 | 54.08794 | 9.53626 | 30558 ft | 471 kts | 168° |
| 2026-04-30 10:21 | 54.05540 | 9.54487 | 30835 ft | 474 kts | 168° |
| 2026-04-30 10:22 | 54.02275 | 9.55348 | 31132 ft | 476 kts | 168° |
| 2026-04-30 10:22 | 53.98999 | 9.56212 | 31436 ft | 477 kts | 168° |
| 2026-04-30 10:22 | 53.95717 | 9.57075 | 31766 ft | 478 kts | 168° |
| 2026-04-30 10:22 | 53.92429 | 9.57938 | 32153 ft | 477 kts | 168° |